createdAt,value
2019-05-17T00:02:46.588Z,2.10
2019-05-17T00:12:48.164Z,2.02
2019-05-17T00:22:49.598Z,2.10
2019-05-17T00:32:51.092Z,1.89
2019-05-17T00:42:52.593Z,1.93
2019-05-17T00:52:54.031Z,1.68
2019-05-17T01:02:57.354Z,1.70
2019-05-17T01:13:00.235Z,1.55
2019-05-17T01:23:01.762Z,1.57
2019-05-17T01:33:03.559Z,1.52
2019-05-17T01:43:07.572Z,1.40
2019-05-17T01:53:08.489Z,1.29
2019-05-17T02:03:10.150Z,1.20
2019-05-17T02:13:11.681Z,1.18
2019-05-17T02:23:13.324Z,1.15
2019-05-17T02:33:15.061Z,1.08
2019-05-17T02:43:16.816Z,1.07
2019-05-17T02:53:18.227Z,1.13
2019-05-17T03:03:19.683Z,1.94
2019-05-17T03:13:23.362Z,1.47
2019-05-17T03:23:25.038Z,1.22
2019-05-17T03:33:27.786Z,1.45
2019-05-17T03:43:29.298Z,1.35
2019-05-17T03:53:33.520Z,1.37
2019-05-17T04:03:35.470Z,1.89
2019-05-17T04:13:37.244Z,1.88
2019-05-17T04:23:38.675Z,1.93
2019-05-17T04:33:42.834Z,1.92
2019-05-17T04:43:43.582Z,3.17
2019-05-17T04:53:45.147Z,3.11
2019-05-17T05:03:46.561Z,3.55
2019-05-17T05:13:48.032Z,4.65
2019-05-17T05:23:51.704Z,4.45
2019-05-17T05:33:52.922Z,4.44
2019-05-17T05:43:54.351Z,5.38
2019-05-17T05:53:55.758Z,19.02
2019-05-17T06:03:57.193Z,25.73
2019-05-17T06:13:58.646Z,29.00
2019-05-17T06:24:02.427Z,30.12
2019-05-17T06:34:03.749Z,27.01
2019-05-17T06:44:05.435Z,28.22
2019-05-17T06:54:06.859Z,28.73
2019-05-17T07:04:10.245Z,31.40
2019-05-17T07:14:11.762Z,31.21
2019-05-17T07:24:13.200Z,33.37
2019-05-17T07:34:14.743Z,32.97
2019-05-17T07:44:17.577Z,34.56
2019-05-17T07:54:19.705Z,33.67
2019-05-17T08:04:21.224Z,33.67
2019-05-17T08:14:30.065Z,33.39
2019-05-17T08:24:26.238Z,38.08
2019-05-17T08:34:29.316Z,37.23
2019-05-17T08:44:30.903Z,40.71
2019-05-17T08:54:32.538Z,38.42
2019-05-17T09:04:34.190Z,41.82
2019-05-17T09:14:35.662Z,42.90
2019-05-17T09:24:39.509Z,40.53
2019-05-17T09:34:40.576Z,35.34
2019-05-17T09:44:42.048Z,34.43
2019-05-17T09:54:45.422Z,37.47
2019-05-17T10:04:46.902Z,36.15
2019-05-17T10:14:49.793Z,40.06
2019-05-17T10:24:51.919Z,36.98
2019-05-17T10:34:53.332Z,34.15
2019-05-17T10:44:54.957Z,35.59
2019-05-17T10:54:59.813Z,33.74
2019-05-17T11:05:01.940Z,24.59
2019-05-17T11:15:11.613Z,30.13
2019-05-17T11:25:09.263Z,32.01
2019-05-17T11:35:10.811Z,38.01
2019-05-17T11:45:26.648Z,32.83
2019-05-17T11:55:16.077Z,35.85
2019-05-17T12:05:18.119Z,35.76
2019-05-17T12:15:19.595Z,33.10
2019-05-17T12:25:21.282Z,29.27
2019-05-17T12:35:22.739Z,25.41
2019-05-17T12:45:24.533Z,24.03
2019-05-17T12:55:25.972Z,24.33
2019-05-17T13:05:27.480Z,21.79
2019-05-17T13:15:29.151Z,24.06
2019-05-17T13:25:30.609Z,23.97
2019-05-17T13:35:32.239Z,23.67
2019-05-17T13:45:33.809Z,24.88
2019-05-17T13:55:35.347Z,23.89
2019-05-17T14:05:37.092Z,23.09
2019-05-17T14:15:38.758Z,22.12
2019-05-17T14:25:40.298Z,23.28
2019-05-17T14:35:41.902Z,23.38
2019-05-17T14:45:43.450Z,22.94
2019-05-17T14:55:45.910Z,22.61
2019-05-17T15:05:47.484Z,21.90
2019-05-17T15:15:49.047Z,21.45
2019-05-17T15:25:50.601Z,20.99
2019-05-17T15:35:52.075Z,21.21
2019-05-17T15:45:53.551Z,21.56
2019-05-17T15:55:55.023Z,21.84
2019-05-17T16:05:56.582Z,22.00
2019-05-17T16:15:58.285Z,21.17
2019-05-17T16:25:59.906Z,20.20
2019-05-17T16:36:01.457Z,19.32
2019-05-17T16:46:22.878Z,18.60
2019-05-17T16:56:24.424Z,18.17
2019-05-17T17:06:26.064Z,17.44
2019-05-17T17:16:28.901Z,17.23
2019-05-17T17:26:30.330Z,17.18
2019-05-17T17:36:32.318Z,16.97
2019-05-17T17:46:35.688Z,16.57
2019-05-17T17:56:37.141Z,16.57
2019-05-17T18:06:41.629Z,16.35
2019-05-17T18:16:43.079Z,16.37
2019-05-17T18:26:44.704Z,16.22
2019-05-17T18:36:46.342Z,15.91
2019-05-17T18:46:47.890Z,15.54
2019-05-17T18:56:49.437Z,14.91
2019-05-17T19:06:50.915Z,14.52
2019-05-17T19:16:52.459Z,14.34
2019-05-17T19:26:53.950Z,13.88
2019-05-17T19:36:55.528Z,13.53
2019-05-17T19:47:00.330Z,13.54
2019-05-17T19:57:02.271Z,13.01
2019-05-17T20:07:04.282Z,13.39
2019-05-17T20:17:05.735Z,13.50
2019-05-17T20:27:07.446Z,13.15
2019-05-17T20:37:09.092Z,13.45
2019-05-17T20:47:10.662Z,13.26
2019-05-17T20:57:12.158Z,13.61
2019-05-17T21:07:15.624Z,13.06
2019-05-17T21:17:17.301Z,12.86
2019-05-17T21:27:19.010Z,12.77
2019-05-17T21:37:21.110Z,12.91
2019-05-17T21:47:24.591Z,12.96
2019-05-17T21:57:26.078Z,12.81
2019-05-17T22:07:30.558Z,12.80
2019-05-17T22:17:32.103Z,12.39
2019-05-17T22:27:33.692Z,12.31
2019-05-17T22:37:35.227Z,12.28
2019-05-17T22:47:36.869Z,12.11
2019-05-17T22:57:38.423Z,11.76
2019-05-17T23:07:39.835Z,11.72
2019-05-17T23:17:41.271Z,11.79
2019-05-17T23:27:42.760Z,11.82
2019-05-17T23:37:44.198Z,12.01
2019-05-17T23:47:45.637Z,12.05
2019-05-17T23:57:47.082Z,11.82
